Time;durP1;ratioP1;P1;durP2;ratioP2;P2;SDS_P1;SDS_P2;PMS_P1;PMS_P2;Temp;Humidity;BMP_temperature;BMP_pressure;BME280_temperature;BME280_humidity;BME280_pressure;Samples;Min_cycle;Max_cycle;Signal;HPM_P1;HPM_P2
2022/08/02 00:01:28;;;;;;;1.60;0.90;;;23.60;60.80;;;;;;4799521;29;20034;-76
2022/08/02 00:03:54;;;;;;;1.70;0.60;;;23.50;60.70;;;;;;4807521;29;20053;-76
2022/08/02 00:06:20;;;;;;;1.30;0.77;;;23.50;60.70;;;;;;4814677;29;20077;-75
2022/08/02 00:08:46;;;;;;;1.67;1.10;;;23.50;60.80;;;;;;4814347;29;20081;-76
2022/08/02 00:11:12;;;;;;;0.65;0.50;;;23.50;60.80;;;;;;4815986;29;20030;-76
2022/08/02 00:13:38;;;;;;;2.20;1.00;;;23.50;60.90;;;;;;4796885;29;20030;-76
2022/08/02 00:16:04;;;;;;;1.05;0.70;;;23.50;61.00;;;;;;4814243;29;20038;-76
2022/08/02 00:18:30;;;;;;;2.35;0.80;;;23.50;61.00;;;;;;4813291;29;20026;-75
2022/08/02 00:20:56;;;;;;;1.75;0.90;;;23.50;61.10;;;;;;4797914;29;20042;-76
2022/08/02 00:23:22;;;;;;;1.13;0.70;;;23.50;61.10;;;;;;4814239;29;20107;-76
2022/08/02 00:25:48;;;;;;;1.70;1.27;;;23.50;61.20;;;;;;4813452;29;20034;-76
2022/08/02 00:28:14;;;;;;;1.30;0.60;;;23.50;61.20;;;;;;4814155;29;20034;-76
2022/08/02 00:30:40;;;;;;;1.98;0.75;;;23.50;61.30;;;;;;4796930;29;20030;-76
2022/08/02 00:33:07;;;;;;;1.63;1.52;;;23.50;61.30;;;;;;4813225;29;20038;-76
2022/08/02 00:35:34;;;;;;;1.25;0.80;;;23.50;61.40;;;;;;4794765;29;20035;-76
2022/08/02 00:38:02;;;;;;;1.48;0.90;;;23.50;61.50;;;;;;4814031;29;20102;-76
2022/08/02 00:40:28;;;;;;;1.55;0.80;;;23.50;61.50;;;;;;4814544;29;20039;-76
2022/08/02 00:43:05;;;;;;;2.15;0.90;;;23.50;61.50;;;;;;4814546;29;20054;-76
2022/08/02 00:45:33;;;;;;;1.00;0.65;;;23.40;61.50;;;;;;4813894;29;20242;-76
2022/08/02 00:47:59;;;;;;;1.58;0.85;;;23.50;61.60;;;;;;4812693;29;20042;-76
2022/08/02 00:50:25;;;;;;;3.30;0.90;;;23.50;61.60;;;;;;4813736;29;20038;-75
2022/08/02 00:52:51;;;;;;;1.30;1.00;;;23.50;61.70;;;;;;4814211;29;20383;-76
2022/08/02 00:55:17;;;;;;;2.83;1.45;;;23.40;61.60;;;;;;4814496;29;20117;-76
2022/08/02 00:57:43;;;;;;;3.28;0.95;;;23.40;61.60;;;;;;4813498;29;20121;-76
2022/08/02 01:00:11;;;;;;;3.58;1.45;;;23.40;61.60;;;;;;4813955;29;20038;-76
2022/08/02 01:02:37;;;;;;;2.63;0.90;;;23.40;61.70;;;;;;4813303;29;20349;-76
2022/08/02 01:05:04;;;;;;;1.02;0.73;;;23.40;61.70;;;;;;4812025;29;20030;-75
2022/08/02 01:07:30;;;;;;;1.63;0.90;;;23.30;61.60;;;;;;4815664;29;20054;-76
2022/08/02 01:09:56;;;;;;;1.67;0.85;;;23.40;61.90;;;;;;4818097;29;20026;-76
2022/08/02 01:12:22;;;;;;;2.83;1.30;;;23.30;61.70;;;;;;4816293;29;20110;-76
2022/08/02 01:14:50;;;;;;;2.42;1.23;;;23.30;61.80;;;;;;4817347;29;20489;-76
2022/08/02 01:17:47;;;;;;;0.68;0.63;;;23.30;61.90;;;;;;4816306;29;20106;-76
2022/08/02 01:20:38;;;;;;;1.58;1.27;;;23.30;62.00;;;;;;4815250;29;20405;-76
2022/08/02 01:23:41;;;;;;;2.17;1.38;;;23.30;62.00;;;;;;4816516;29;20574;-76
2022/08/02 01:26:25;;;;;;;1.73;1.10;;;23.30;62.10;;;;;;4817207;29;20050;-76
2022/08/02 01:29:07;;;;;;;1.83;1.23;;;23.30;62.10;;;;;;4815188;29;20031;-76
2022/08/02 01:31:47;;;;;;;1.60;0.82;;;23.20;62.10;;;;;;4818067;29;20342;-76
2022/08/02 01:34:22;;;;;;;1.85;1.30;;;23.30;62.30;;;;;;4811733;29;20031;-76
2022/08/02 01:36:58;;;;;;;0.88;0.60;;;23.20;62.10;;;;;;4814843;29;20042;-76
2022/08/02 01:39:27;;;;;;;2.00;1.35;;;23.20;62.30;;;;;;4817618;29;20445;-76
2022/08/02 01:41:56;;;;;;;1.23;1.13;;;23.20;62.30;;;;;;4816558;29;20099;-76
2022/08/02 01:44:23;;;;;;;2.25;0.90;;;23.20;62.30;;;;;;4816517;29;20034;-76
2022/08/02 01:46:50;;;;;;;1.63;1.10;;;23.20;62.40;;;;;;4815868;29;20122;-76
2022/08/02 01:49:20;;;;;;;2.15;1.30;;;23.20;62.50;;;;;;4815912;29;20022;-76
2022/08/02 01:54:35;;;;;;;1.45;1.00;;;23.20;62.60;;;;;;4817415;29;20030;-76
2022/08/02 01:57:05;;;;;;;1.63;1.10;;;23.20;62.60;;;;;;4800005;29;20034;-76
2022/08/02 01:59:32;;;;;;;1.70;0.90;;;23.20;63.20;;;;;;4816795;29;20037;-76
2022/08/02 02:02:00;;;;;;;1.23;1.10;;;23.20;62.70;;;;;;4816424;29;20135;-76
2022/08/02 02:04:29;;;;;;;1.40;1.08;;;23.20;62.80;;;;;;4800040;29;20057;-77
2022/08/02 02:06:56;;;;;;;2.38;1.45;;;23.20;62.80;;;;;;4811547;29;20185;-76
2022/08/02 02:09:26;;;;;;;2.03;0.98;;;23.20;62.90;;;;;;4817494;29;20030;-76
2022/08/02 02:11:55;;;;;;;2.00;1.00;;;23.20;62.90;;;;;;4813593;29;20066;-76
2022/08/02 02:14:21;;;;;;;1.40;1.00;;;23.20;63.00;;;;;;4816849;29;20031;-76
2022/08/02 02:16:48;;;;;;;1.67;0.93;;;23.10;62.80;;;;;;4815673;29;20022;-77
2022/08/02 02:19:17;;;;;;;2.70;0.98;;;23.20;63.10;;;;;;4815212;29;20042;-74
2022/08/02 02:21:43;;;;;;;2.95;1.27;;;23.20;63.20;;;;;;4817164;29;20113;-75
2022/08/02 02:24:10;;;;;;;2.85;1.08;;;23.10;63.00;;;;;;4817156;29;20046;-76
2022/08/02 02:26:37;;;;;;;1.35;0.90;;;23.10;63.10;;;;;;4816680;29;20073;-76
2022/08/02 02:29:05;;;;;;;1.48;1.10;;;23.10;63.20;;;;;;4816903;29;20170;-76
2022/08/02 02:31:38;;;;;;;1.50;1.00;;;23.10;63.20;;;;;;4816589;29;20038;-76
2022/08/02 02:34:12;;;;;;;2.17;1.15;;;23.10;63.30;;;;;;4816501;29;20537;-77
2022/08/02 02:36:44;;;;;;;2.40;1.02;;;23.00;63.20;;;;;;4811735;29;20517;-76
2022/08/02 02:39:12;;;;;;;1.15;0.80;;;23.10;63.50;;;;;;4816675;29;20127;-76
2022/08/02 02:41:40;;;;;;;1.75;0.77;;;23.00;63.30;;;;;;4805810;29;20594;-76
2022/08/02 02:44:12;;;;;;;1.83;1.00;;;23.00;63.30;;;;;;4816406;29;20070;-76
2022/08/02 02:46:39;;;;;;;1.83;0.98;;;23.00;63.50;;;;;;4816128;29;20046;-76
2022/08/02 02:49:08;;;;;;;2.55;1.10;;;23.00;63.50;;;;;;4814092;29;20349;-76
2022/08/02 02:51:34;;;;;;;2.72;1.00;;;23.00;63.60;;;;;;4816811;29;20034;-76
2022/08/02 02:54:01;;;;;;;2.15;0.90;;;23.00;63.60;;;;;;4816857;29;20391;-76
2022/08/02 02:56:27;;;;;;;1.15;1.02;;;23.00;63.70;;;;;;4816294;29;20502;-76
2022/08/02 02:58:54;;;;;;;1.55;1.10;;;22.90;63.60;;;;;;4816076;29;20503;-76
2022/08/02 03:01:27;;;;;;;1.70;1.08;;;23.00;63.80;;;;;;4800315;29;20034;-76
2022/08/02 03:03:55;;;;;;;1.98;1.50;;;23.00;63.90;;;;;;4815547;29;20091;-76
2022/08/02 03:06:21;;;;;;;2.42;1.20;;;23.00;63.90;;;;;;4815958;29;20042;-76
2022/08/02 03:08:47;;;;;;;2.15;1.38;;;23.00;63.90;;;;;;4811453;29;20038;-75
2022/08/02 03:11:14;;;;;;;1.50;0.93;;;23.00;64.00;;;;;;4815762;29;20408;-76
2022/08/02 03:13:40;;;;;;;1.55;1.10;;;23.00;64.00;;;;;;4819268;29;20053;-76
2022/08/02 03:16:07;;;;;;;2.88;1.20;;;23.00;64.10;;;;;;4819389;29;20046;-76
2022/08/02 03:18:38;;;;;;;1.95;1.13;;;23.00;64.10;;;;;;4820821;29;20038;-76
2022/08/02 03:21:07;;;;;;;2.30;0.98;;;23.00;64.20;;;;;;4825190;29;20030;-77
2022/08/02 03:23:34;;;;;;;1.85;1.30;;;22.90;64.00;;;;;;4829662;29;20026;-76
2022/08/02 03:26:00;;;;;;;3.10;1.25;;;23.00;64.20;;;;;;4825261;29;20385;-76
2022/08/02 03:28:27;;;;;;;2.33;1.55;;;22.90;64.10;;;;;;4819719;29;20134;-76
2022/08/02 03:30:53;;;;;;;2.05;1.00;;;22.90;64.10;;;;;;4800157;29;20035;-75
2022/08/02 03:33:19;;;;;;;1.10;0.98;;;22.90;64.20;;;;;;4815557;29;20606;-76
2022/08/02 03:35:48;;;;;;;3.80;1.42;;;22.90;64.20;;;;;;4799295;29;20030;-76
2022/08/02 03:38:18;;;;;;;2.17;1.40;;;22.90;64.30;;;;;;4811693;29;20068;-76
2022/08/02 03:40:45;;;;;;;3.95;1.30;;;22.90;64.40;;;;;;4815900;29;20062;-76
2022/08/02 03:43:11;;;;;;;4.10;1.80;;;22.90;64.40;;;;;;4815846;29;20038;-76
2022/08/02 03:45:46;;;;;;;4.13;1.65;;;22.90;64.50;;;;;;4799041;29;20043;-76
2022/08/02 03:48:14;;;;;;;2.75;1.63;;;22.80;64.40;;;;;;4814949;29;20081;-76
2022/08/02 03:50:41;;;;;;;2.95;2.03;;;22.90;64.60;;;;;;4815653;29;20030;-76
2022/08/02 03:53:08;;;;;;;2.75;1.70;;;22.90;64.60;;;;;;4816160;29;20042;-76
2022/08/02 03:55:34;;;;;;;2.45;1.83;;;22.80;64.50;;;;;;4815416;29;20034;-76
2022/08/02 03:58:01;;;;;;;2.63;1.90;;;22.80;64.60;;;;;;4814892;29;20053;-75
2022/08/02 04:00:27;;;;;;;3.58;1.75;;;22.80;64.60;;;;;;4815690;29;20087;-76
2022/08/02 04:02:53;;;;;;;2.17;1.60;;;22.80;64.70;;;;;;4814368;29;20034;-76
2022/08/02 04:05:19;;;;;;;2.25;1.58;;;22.80;64.70;;;;;;4815757;29;20084;-76
2022/08/02 04:07:47;;;;;;;2.92;1.63;;;22.80;64.80;;;;;;4815700;29;20133;-76
2022/08/02 04:10:14;;;;;;;3.85;2.38;;;22.80;64.80;;;;;;4810533;29;20064;-76
2022/08/02 04:12:40;;;;;;;3.22;1.95;;;22.80;64.90;;;;;;4814497;29;20038;-76
2022/08/02 04:15:08;;;;;;;3.65;1.63;;;22.80;64.90;;;;;;4815524;29;20038;-76
2022/08/02 04:17:39;;;;;;;5.18;2.25;;;22.80;64.90;;;;;;4813965;29;20038;-76
2022/08/02 04:20:11;;;;;;;2.22;1.73;;;22.80;65.00;;;;;;4815252;29;20142;-76
2022/08/02 04:22:46;;;;;;;2.17;1.40;;;22.70;64.90;;;;;;4798540;29;20416;-75
2022/08/02 04:25:12;;;;;;;2.53;1.70;;;22.80;65.10;;;;;;4798992;29;20053;-76
2022/08/02 04:27:40;;;;;;;3.53;1.85;;;22.70;64.90;;;;;;4814257;29;20038;-76
2022/08/02 04:30:07;;;;;;;2.95;1.58;;;22.80;65.10;;;;;;4814756;29;20045;-76
2022/08/02 04:32:34;;;;;;;3.92;1.88;;;22.70;65.00;;;;;;4814021;29;20689;-76
2022/08/02 04:35:00;;;;;;;2.90;1.63;;;22.70;65.00;;;;;;4815235;29;20809;-76
2022/08/02 04:37:26;;;;;;;5.95;1.67;;;22.70;65.00;;;;;;4814197;29;20525;-76
2022/08/02 04:39:52;;;;;;;2.22;2.03;;;22.70;65.10;;;;;;4814649;29;20030;-76
2022/08/02 04:42:23;;;;;;;2.28;1.70;;;22.70;65.10;;;;;;4810242;29;20516;-76
2022/08/02 04:44:50;;;;;;;5.00;2.35;;;22.70;65.20;;;;;;4814681;29;20030;-76
2022/08/02 04:47:16;;;;;;;2.88;1.80;;;22.70;65.20;;;;;;4811848;29;20488;-76
2022/08/02 04:49:43;;;;;;;1.85;1.30;;;22.70;65.20;;;;;;4810973;29;20038;-76
2022/08/02 04:52:09;;;;;;;2.55;1.90;;;22.70;65.20;;;;;;4814135;29;20038;-76
2022/08/02 04:54:34;;;;;;;5.15;1.80;;;22.70;65.30;;;;;;4814725;29;20123;-76
2022/08/02 04:57:00;;;;;;;3.42;1.73;;;22.70;65.30;;;;;;4813147;29;20030;-75
2022/08/02 04:59:26;;;;;;;6.80;2.20;;;22.70;65.30;;;;;;4814649;29;20035;-75
2022/08/02 05:01:53;;;;;;;2.22;1.50;;;22.70;65.30;;;;;;4811881;29;20798;-76
2022/08/02 05:04:19;;;;;;;2.78;2.03;;;22.70;65.40;;;;;;4797089;29;20643;-76
2022/08/02 05:06:45;;;;;;;4.30;2.03;;;22.70;65.40;;;;;;4811985;29;20054;-76
2022/08/02 05:09:11;;;;;;;3.95;2.47;;;22.70;65.40;;;;;;4813317;29;20030;-76
2022/08/02 05:11:37;;;;;;;3.03;1.48;;;22.70;65.40;;;;;;4806346;29;20127;-76
2022/08/02 05:14:04;;;;;;;2.80;1.80;;;22.70;65.40;;;;;;4797355;29;20099;-76
2022/08/02 05:16:30;;;;;;;5.10;2.10;;;22.70;65.50;;;;;;4813709;29;20042;-76
2022/08/02 05:18:55;;;;;;;2.65;1.25;;;22.70;65.50;;;;;;4797483;29;20188;-78
2022/08/02 05:21:21;;;;;;;3.50;1.90;;;22.70;65.50;;;;;;4810159;29;20117;-79
2022/08/02 05:23:47;;;;;;;2.55;1.38;;;22.70;65.50;;;;;;4812328;29;20458;-78
2022/08/02 05:26:13;;;;;;;3.17;1.27;;;22.80;65.70;;;;;;4812511;29;20045;-77
2022/08/02 05:28:39;;;;;;;3.97;1.50;;;22.80;65.70;;;;;;4810630;29;20043;-77
2022/08/02 05:31:05;;;;;;;4.10;1.50;;;22.80;65.70;;;;;;4812548;29;20041;-78
2022/08/02 05:33:31;;;;;;;4.00;1.45;;;22.80;65.70;;;;;;4796896;29;20121;-76
2022/08/02 05:35:57;;;;;;;2.90;1.38;;;22.80;65.80;;;;;;4796409;29;20054;-77
2022/08/02 05:38:24;;;;;;;2.22;1.45;;;22.80;65.80;;;;;;4811673;29;20125;-76
2022/08/02 05:40:51;;;;;;;2.78;1.92;;;22.90;66.00;;;;;;4810078;29;20087;-76
2022/08/02 05:43:16;;;;;;;3.63;1.38;;;22.90;66.00;;;;;;4791369;29;20854;-76
2022/08/02 05:45:42;;;;;;;2.83;1.65;;;22.90;66.00;;;;;;4812340;29;20406;-75
2022/08/02 05:48:08;;;;;;;4.20;1.58;;;22.90;66.10;;;;;;4810536;29;20038;-77
2022/08/02 05:50:43;;;;;;;2.05;1.20;;;22.90;66.10;;;;;;4815279;29;20038;-77
2022/08/02 05:53:31;;;;;;;2.88;1.20;;;22.90;66.20;;;;;;4814692;29;20023;-76
2022/08/02 05:56:24;;;;;;;4.45;1.27;;;22.90;66.30;;;;;;4813549;29;20026;-77
2022/08/02 05:59:01;;;;;;;;;;;22.90;66.30;;;;;;4814670;29;20027;-77
2022/08/02 06:01:33;;;;;;;4.20;1.92;;;22.90;66.00;;;;;;4814559;29;19921;-76
2022/08/02 06:03:59;;;;;;;4.95;1.30;;;22.90;66.10;;;;;;4813877;29;20034;-77
2022/08/02 06:06:26;;;;;;;4.85;1.35;;;22.90;66.30;;;;;;4798607;29;20053;-76
2022/08/02 06:09:03;;;;;;;3.35;1.65;;;22.90;66.50;;;;;;4798889;29;20030;-76
2022/08/02 06:11:37;;;;;;;3.55;1.88;;;22.90;66.80;;;;;;4816220;29;20091;-77
2022/08/02 06:14:05;;;;;;;6.53;2.08;;;22.90;67.40;;;;;;4816454;29;20114;-76
2022/08/02 06:16:31;;;;;;;2.88;1.63;;;23.00;68.20;;;;;;4811216;29;20509;-78
2022/08/02 06:18:58;;;;;;;2.85;1.65;;;23.00;68.90;;;;;;4815094;29;20045;-78
2022/08/02 06:21:25;;;;;;;2.45;1.33;;;23.10;69.30;;;;;;4799339;29;20036;-79
2022/08/02 06:23:52;;;;;;;4.97;1.83;;;23.10;69.30;;;;;;4815607;29;20054;-79
2022/08/02 06:26:19;;;;;;;3.90;1.65;;;23.10;69.30;;;;;;4816166;29;20031;-77
2022/08/02 06:28:46;;;;;;;3.45;1.48;;;23.20;69.40;;;;;;4815426;29;20042;-77
2022/08/02 06:31:14;;;;;;;2.40;1.20;;;23.20;69.30;;;;;;4816527;29;20041;-77
2022/08/02 06:33:40;;;;;;;2.47;1.40;;;23.30;70.00;;;;;;4814449;29;20113;-78
2022/08/02 06:36:42;;;;;;;3.00;1.02;;;23.30;69.30;;;;;;4813523;29;20813;-78
2022/08/02 06:39:31;;;;;;;3.50;1.20;;;23.40;69.50;;;;;;4815631;29;20105;-78
2022/08/02 06:42:01;;;;;;;2.80;1.00;;;23.40;69.80;;;;;;4814057;29;20390;-77
2022/08/02 06:44:37;;;;;;;2.70;1.00;;;23.40;69.00;;;;;;4799488;29;20030;-77
2022/08/02 06:47:04;;;;;;;1.33;0.90;;;23.50;69.00;;;;;;4814774;29;20053;-78
2022/08/02 06:49:29;;;;;;;2.03;1.15;;;23.50;68.90;;;;;;4815379;29;20030;-78
2022/08/02 06:51:55;;;;;;;2.80;0.98;;;23.60;69.00;;;;;;4815451;29;20310;-78
2022/08/02 06:54:22;;;;;;;2.65;1.35;;;23.60;68.90;;;;;;4814258;29;20497;-78
2022/08/02 06:56:49;;;;;;;2.83;1.13;;;23.60;68.80;;;;;;4813774;29;20119;-78
2022/08/02 06:59:15;;;;;;;3.70;1.10;;;23.60;68.70;;;;;;4814116;29;20030;-79
2022/08/02 07:01:41;;;;;;;1.60;0.77;;;23.60;68.70;;;;;;4814462;29;20432;-78
2022/08/02 07:04:08;;;;;;;1.52;1.10;;;23.60;68.80;;;;;;4813475;29;20082;-78
2022/08/02 07:06:35;;;;;;;3.92;1.02;;;23.60;68.80;;;;;;4813479;29;20183;-78
2022/08/02 07:09:01;;;;;;;2.67;0.95;;;23.50;69.20;;;;;;4815484;29;20042;-78
2022/08/02 07:11:26;;;;;;;2.40;0.90;;;23.60;68.90;;;;;;4815259;29;20557;-80
2022/08/02 07:13:52;;;;;;;4.15;1.27;;;23.50;68.70;;;;;;4814899;29;20034;-81
2022/08/02 07:16:18;;;;;;;1.90;1.10;;;23.50;68.70;;;;;;4799354;29;20041;-80
2022/08/02 07:18:44;;;;;;;2.70;1.02;;;23.50;68.70;;;;;;4814383;29;20489;-80
2022/08/02 07:21:10;;;;;;;1.92;1.20;;;23.50;68.70;;;;;;4814730;29;20515;-80
2022/08/02 07:23:36;;;;;;;3.50;0.82;;;23.50;68.70;;;;;;4815265;29;20367;-80
2022/08/02 07:26:01;;;;;;;3.72;1.17;;;23.50;68.70;;;;;;4815476;29;20051;-80
2022/08/02 07:28:27;;;;;;;2.08;0.82;;;23.50;68.60;;;;;;4798648;29;20409;-80
2022/08/02 07:30:53;;;;;;;4.18;1.23;;;23.50;68.60;;;;;;4815642;29;20030;-79
2022/08/02 07:33:19;;;;;;;2.95;0.93;;;23.50;68.50;;;;;;4814322;29;20477;-82
2022/08/02 07:35:45;;;;;;;2.97;1.10;;;23.60;68.70;;;;;;4813988;29;20027;-80
2022/08/02 07:38:11;;;;;;;2.55;1.40;;;23.60;68.60;;;;;;4815074;29;20093;-78
2022/08/02 07:40:37;;;;;;;2.75;1.58;;;23.60;68.60;;;;;;4813230;29;20053;-78
2022/08/02 07:43:03;;;;;;;3.10;0.93;;;23.60;68.50;;;;;;4814923;29;20057;-78
2022/08/02 07:45:29;;;;;;;1.58;0.70;;;23.70;68.60;;;;;;4815546;29;20386;-78
2022/08/02 07:47:55;;;;;;;1.88;0.95;;;23.70;68.50;;;;;;4797367;29;20509;-77
2022/08/02 07:50:21;;;;;;;1.70;0.85;;;23.80;68.60;;;;;;4815080;29;20038;-78
2022/08/02 07:52:48;;;;;;;2.55;0.80;;;23.90;68.60;;;;;;4815063;29;20049;-80
2022/08/02 07:55:19;;;;;;;1.48;0.82;;;23.90;68.40;;;;;;4814985;29;20756;-79
2022/08/02 07:57:46;;;;;;;3.85;1.00;;;24.00;68.40;;;;;;4814641;29;20437;-80
2022/08/02 08:00:12;;;;;;;2.88;0.88;;;24.10;68.40;;;;;;4815253;29;20057;-79
2022/08/02 08:02:38;;;;;;;1.80;0.80;;;24.10;68.30;;;;;;4813680;29;20374;-78
2022/08/02 08:05:05;;;;;;;2.53;1.10;;;24.10;68.80;;;;;;4814236;29;20060;-78
2022/08/02 08:07:32;;;;;;;1.70;0.63;;;24.10;68.30;;;;;;4814730;29;20073;-79
2022/08/02 08:09:59;;;;;;;1.08;0.52;;;24.10;68.20;;;;;;4815237;29;20044;-78
2022/08/02 08:12:26;;;;;;;1.70;0.40;;;24.10;68.30;;;;;;4813617;29;20042;-78
2022/08/02 08:14:52;;;;;;;2.15;0.70;;;24.20;68.40;;;;;;4815016;29;20045;-79
2022/08/02 08:17:18;;;;;;;0.88;0.45;;;24.20;68.40;;;;;;4813874;29;20031;-78
2022/08/02 08:19:43;;;;;;;2.97;0.80;;;24.20;68.30;;;;;;4815308;29;20031;-78
2022/08/02 08:22:09;;;;;;;1.55;0.63;;;24.40;68.50;;;;;;4798557;29;20038;-78
2022/08/02 08:24:35;;;;;;;1.90;0.98;;;24.50;68.50;;;;;;4815083;29;20427;-77
2022/08/02 08:27:04;;;;;;;0.93;0.50;;;24.50;68.20;;;;;;4816490;29;20034;-78
2022/08/02 08:29:29;;;;;;;2.58;0.90;;;24.70;68.30;;;;;;4822589;29;20521;-84
2022/08/02 08:31:55;;;;;;;1.23;0.50;;;24.90;68.30;;;;;;4822192;29;20038;-80
2022/08/02 08:34:22;;;;;;;2.97;0.60;;;25.00;68.20;;;;;;4823498;29;20053;-81
2022/08/02 08:36:49;;;;;;;0.80;0.50;;;25.10;68.00;;;;;;4837494;29;20058;-79
2022/08/02 08:39:15;;;;;;;2.00;0.63;;;25.10;67.70;;;;;;4823206;29;20059;-79
2022/08/02 08:41:42;;;;;;;1.88;0.70;;;25.20;67.70;;;;;;4839234;29;20045;-79
2022/08/02 08:44:08;;;;;;;2.78;0.73;;;25.20;67.60;;;;;;4835285;29;20043;-80
2022/08/02 08:46:36;;;;;;;2.65;0.68;;;25.20;67.60;;;;;;4816819;29;20037;-80
2022/08/02 08:49:08;;;;;;;1.55;0.90;;;25.30;67.60;;;;;;4815825;29;20042;-80
2022/08/02 08:51:42;;;;;;;1.83;0.80;;;25.30;67.60;;;;;;4815359;29;20048;-80
2022/08/02 08:54:17;;;;;;;2.20;1.27;;;25.40;67.50;;;;;;4815031;29;20054;-80
2022/08/02 08:56:44;;;;;;;1.95;0.73;;;25.50;67.40;;;;;;4814491;29;20300;-77
2022/08/02 08:59:10;;;;;;;3.13;0.95;;;25.70;67.10;;;;;;4815627;29;20042;-77
2022/08/02 09:01:36;;;;;;;3.53;0.52;;;25.80;66.80;;;;;;4815625;29;20055;-77
2022/08/02 09:04:02;;;;;;;3.65;0.73;;;26.00;66.80;;;;;;4797092;29;20066;-77
2022/08/02 09:06:28;;;;;;;1.48;1.15;;;26.20;66.40;;;;;;4814613;29;20555;-77
2022/08/02 09:08:54;;;;;;;1.90;0.60;;;26.30;66.10;;;;;;4816221;29;20075;-78
2022/08/02 09:11:24;;;;;;;3.22;0.68;;;26.40;65.90;;;;;;4815184;29;20113;-78
2022/08/02 09:13:58;;;;;;;2.25;0.60;;;26.40;65.80;;;;;;4813956;29;20284;-77
2022/08/02 09:16:34;;;;;;;2.53;0.65;;;26.50;65.70;;;;;;4812673;29;20465;-78
2022/08/02 09:19:22;;;;;;;1.30;0.73;;;26.60;65.50;;;;;;4811930;29;20034;-78
2022/08/02 09:21:49;;;;;;;0.82;0.68;;;26.70;65.40;;;;;;4811962;29;20042;-79
2022/08/02 09:24:22;;;;;;;1.80;0.50;;;26.70;65.30;;;;;;4814642;29;20393;-86
2022/08/02 09:26:49;;;;;;;5.13;1.23;;;26.70;65.30;;;;;;4816334;29;20481;-84
2022/08/02 09:29:17;;;;;;;2.83;0.88;;;26.70;65.40;;;;;;4797465;29;20045;-78
2022/08/02 09:31:43;;;;;;;3.00;1.00;;;26.70;65.50;;;;;;4799447;29;20098;-77
2022/08/02 09:34:09;;;;;;;1.98;0.68;;;26.70;65.50;;;;;;4815328;29;20117;-80
2022/08/02 09:36:41;;;;;;;2.20;0.73;;;26.90;65.50;;;;;;4799242;29;20038;-82
2022/08/02 09:39:10;;;;;;;4.55;1.55;;;26.90;65.30;;;;;;4815480;29;20520;-82
2022/08/02 09:41:40;;;;;;;2.42;1.33;;;27.00;65.30;;;;;;4799222;29;20046;-81
2022/08/02 09:44:08;;;;;;;3.25;0.70;;;27.00;65.10;;;;;;4816200;29;20157;-83
2022/08/02 09:46:40;;;;;;;3.53;1.40;;;27.10;65.00;;;;;;4799630;29;20038;-83
2022/08/02 09:49:18;;;;;;;5.68;0.93;;;27.20;64.80;;;;;;4799531;29;20945;-79
2022/08/02 09:51:47;;;;;;;6.10;1.35;;;27.40;64.60;;;;;;4816239;29;20034;-79
2022/08/02 09:54:17;;;;;;;5.90;1.45;;;27.60;64.40;;;;;;4816068;29;20094;-82
2022/08/02 09:56:47;;;;;;;5.57;1.33;;;27.70;64.10;;;;;;4816670;29;20665;-80
2022/08/02 09:59:14;;;;;;;6.55;2.22;;;27.80;63.90;;;;;;4813844;29;20054;-81
2022/08/02 10:01:41;;;;;;;7.43;2.67;;;27.90;63.70;;;;;;4815247;29;20511;-79
2022/08/02 10:04:09;;;;;;;4.28;1.33;;;28.00;63.60;;;;;;4799092;29;20035;-80
2022/08/02 10:06:36;;;;;;;6.97;1.40;;;28.10;63.40;;;;;;4816121;29;20105;-79
2022/08/02 10:09:03;;;;;;;3.15;1.50;;;28.20;63.30;;;;;;4815520;29;20129;-80
2022/08/02 10:11:30;;;;;;;3.42;1.33;;;28.30;63.10;;;;;;4816238;29;20039;-80
2022/08/02 10:13:56;;;;;;;5.90;2.08;;;28.30;62.90;;;;;;4798520;29;20193;-77
2022/08/02 10:16:24;;;;;;;5.28;1.80;;;28.40;62.90;;;;;;4799683;29;20044;-77
2022/08/02 10:18:53;;;;;;;5.15;2.03;;;28.30;62.80;;;;;;4813637;29;20125;-77
2022/08/02 10:21:22;;;;;;;5.38;2.15;;;28.20;62.80;;;;;;4799235;29;20046;-77
2022/08/02 10:23:49;;;;;;;6.68;1.80;;;28.20;63.00;;;;;;4814248;29;20034;-77
2022/08/02 10:26:17;;;;;;;4.10;1.27;;;28.10;63.00;;;;;;4813962;29;20049;-77
2022/08/02 10:28:46;;;;;;;4.45;1.58;;;28.10;63.20;;;;;;4813717;29;20125;-77
2022/08/02 10:31:19;;;;;;;4.50;1.55;;;28.00;63.20;;;;;;4813398;29;20512;-77
2022/08/02 10:33:48;;;;;;;4.32;1.40;;;28.00;63.20;;;;;;4811781;29;20034;-77
2022/08/02 10:36:14;;;;;;;3.03;1.60;;;28.00;63.20;;;;;;4812573;29;20030;-77
2022/08/02 10:38:42;;;;;;;4.32;1.30;;;28.00;63.10;;;;;;4782175;29;20487;-77
2022/08/02 10:41:08;;;;;;;3.60;1.30;;;28.00;63.00;;;;;;4813219;29;20049;-79
2022/08/02 10:43:39;;;;;;;3.63;1.45;;;28.00;63.10;;;;;;4814607;29;20401;-78
2022/08/02 10:46:34;;;;;;;4.83;1.87;;;27.90;63.10;;;;;;4812864;29;20525;-81
2022/08/02 10:49:03;;;;;;;3.60;1.42;;;27.80;63.20;;;;;;4813646;29;20057;-79
2022/08/02 10:51:54;;;;;;;5.28;1.65;;;27.80;63.20;;;;;;4815709;29;20026;-80
2022/08/02 10:54:23;;;;;;;4.28;1.50;;;27.80;63.40;;;;;;4798818;29;20134;-80
2022/08/02 10:56:51;;;;;;;5.32;1.83;;;27.70;63.40;;;;;;4814228;29;20049;-80
2022/08/02 10:59:35;;;;;;;3.92;1.52;;;27.60;63.50;;;;;;4798312;29;20038;-80
2022/08/02 11:02:04;;;;;;;2.83;1.10;;;27.60;63.60;;;;;;4812119;29;20493;-80
2022/08/02 11:04:35;;;;;;;3.42;1.13;;;27.50;63.70;;;;;;4816038;29;20022;-77
2022/08/02 11:07:16;;;;;;;2.70;1.20;;;27.40;63.80;;;;;;4813558;29;20050;-79
2022/08/02 11:09:47;;;;;;;3.50;1.45;;;27.30;63.80;;;;;;4812804;29;20566;-78
2022/08/02 11:12:16;;;;;;;4.18;1.30;;;27.30;63.90;;;;;;4796505;29;20034;-79
2022/08/02 11:14:58;;;;;;;4.50;1.48;;;27.30;63.90;;;;;;4815249;29;20126;-80
2022/08/02 11:17:24;;;;;;;3.55;1.45;;;27.30;63.90;;;;;;4797258;29;20038;-80
2022/08/02 11:20:11;;;;;;;8.95;2.05;;;27.30;63.90;;;;;;4814531;29;20420;-78
2022/08/02 11:22:39;;;;;;;3.05;1.60;;;27.30;63.90;;;;;;4796448;29;20030;-77
2022/08/02 11:25:21;;;;;;;6.57;2.42;;;27.40;63.80;;;;;;4798359;29;20177;-78
2022/08/02 11:27:48;;;;;;;4.70;1.70;;;27.50;63.90;;;;;;4797285;29;20042;-79
2022/08/02 11:30:15;;;;;;;6.25;2.10;;;27.50;63.70;;;;;;4813110;29;20294;-78
2022/08/02 11:32:41;;;;;;;3.72;1.55;;;27.60;63.70;;;;;;4796812;29;20042;-78
2022/08/02 11:35:08;;;;;;;4.97;1.80;;;27.60;63.50;;;;;;4798141;29;20042;-78
2022/08/02 11:37:35;;;;;;;6.38;2.08;;;27.70;63.50;;;;;;4814728;29;20782;-78
2022/08/02 11:40:06;;;;;;;3.85;2.05;;;27.70;63.40;;;;;;4814693;29;20541;-78
2022/08/02 11:42:33;;;;;;;5.35;2.30;;;27.80;63.40;;;;;;4813964;29;20030;-80
2022/08/02 11:45:00;;;;;;;3.47;1.55;;;27.80;63.30;;;;;;4814657;29;20031;-79
2022/08/02 11:47:26;;;;;;;3.70;1.75;;;27.90;63.40;;;;;;4812723;29;20045;-78
2022/08/02 11:50:02;;;;;;;6.82;2.30;;;27.90;63.30;;;;;;4812474;29;20034;-77
2022/08/02 11:52:33;;;;;;;4.15;1.50;;;27.90;63.30;;;;;;4814684;29;20045;-81
2022/08/02 11:54:59;;;;;;;6.82;1.75;;;27.90;63.30;;;;;;4814639;29;20058;-79
2022/08/02 11:57:25;;;;;;;6.20;1.60;;;28.00;63.80;;;;;;4812742;29;20039;-77
2022/08/02 11:59:52;;;;;;;10.23;2.30;;;28.00;63.20;;;;;;4814315;29;20036;-76
2022/08/02 12:02:27;;;;;;;5.78;1.45;;;28.10;63.10;;;;;;4813010;29;20038;-77
2022/08/02 12:05:02;;;;;;;7.22;1.58;;;28.20;62.90;;;;;;4797535;29;20035;-77
2022/08/02 12:07:31;;;;;;;4.93;1.70;;;28.50;62.60;;;;;;4814039;29;20053;-77
2022/08/02 12:10:03;;;;;;;5.78;1.50;;;28.70;62.30;;;;;;4814771;29;20083;-77
2022/08/02 12:12:28;;;;;;;6.00;1.58;;;28.80;62.10;;;;;;4796162;29;20038;-77
2022/08/02 12:14:54;;;;;;;4.97;1.60;;;28.90;61.90;;;;;;4813370;29;20033;-77
2022/08/02 12:20:11;;;;;;;4.80;1.67;;;29.10;61.50;;;;;;4812933;29;20051;-78
2022/08/02 12:22:38;;;;;;;3.83;1.42;;;29.10;61.50;;;;;;4813955;29;20091;-79
2022/08/02 12:25:20;;;;;;;6.93;1.55;;;29.10;61.50;;;;;;4813383;29;20095;-79
2022/08/02 12:27:47;;;;;;;5.37;1.87;;;29.10;61.50;;;;;;4812716;29;20497;-81
2022/08/02 12:30:15;;;;;;;4.38;1.55;;;29.10;61.50;;;;;;4797153;29;20363;-81
2022/08/02 12:32:41;;;;;;;6.50;1.90;;;29.10;61.50;;;;;;4812872;29;20031;-79
2022/08/02 12:35:12;;;;;;;5.88;1.27;;;29.00;61.60;;;;;;4813279;29;20030;-79
2022/08/02 12:37:41;;;;;;;3.37;1.17;;;29.00;61.60;;;;;;4799272;29;20278;-79
2022/08/02 12:40:36;;;;;;;5.57;1.65;;;29.00;61.60;;;;;;4797127;29;20358;-80
2022/08/02 12:43:05;;;;;;;3.20;1.30;;;29.00;61.60;;;;;;4783711;29;20082;-79
2022/08/02 12:45:43;;;;;;;4.22;1.13;;;29.10;61.50;;;;;;4797291;29;20553;-82
2022/08/02 12:48:09;;;;;;;3.92;1.15;;;29.30;61.40;;;;;;4812395;29;20054;-80
2022/08/02 12:50:36;;;;;;;4.82;1.65;;;29.40;61.20;;;;;;4813562;29;20429;-79
2022/08/02 12:53:10;;;;;;;6.38;2.00;;;29.50;61.00;;;;;;4813174;29;20062;-79
2022/08/02 12:55:46;;;;;;;4.00;1.35;;;29.70;60.70;;;;;;4813726;29;20030;-79
2022/08/02 12:58:12;;;;;;;4.88;1.70;;;29.90;60.30;;;;;;4812815;29;20145;-79
2022/08/02 13:00:39;;;;;;;3.63;1.52;;;30.10;60.10;;;;;;4816510;29;20158;-79
2022/08/02 13:03:06;;;;;;;4.32;1.60;;;30.20;59.90;;;;;;4799178;29;20031;-80